sensor_id;sensor_type;location;lat;lon;timestamp;temperature;humidity
41928;DHT22;27616;51.420;6.788;2023-04-24T00:00:05;11.30;99.90
41928;DHT22;27616;51.420;6.788;2023-04-24T00:02:31;11.30;99.90
41928;DHT22;27616;51.420;6.788;2023-04-24T00:04:58;11.30;99.90
41928;DHT22;27616;51.420;6.788;2023-04-24T00:07:29;11.30;99.90
41928;DHT22;27616;51.420;6.788;2023-04-24T00:09:54;11.30;99.90
41928;DHT22;27616;51.420;6.788;2023-04-24T00:12:20;11.20;99.90
41928;DHT22;27616;51.420;6.788;2023-04-24T00:14:46;11.20;99.90
41928;DHT22;27616;51.420;6.788;2023-04-24T00:17:12;11.20;99.90
41928;DHT22;27616;51.420;6.788;2023-04-24T00:19:38;11.20;99.90
41928;DHT22;27616;51.420;6.788;2023-04-24T00:22:03;11.20;99.90
41928;DHT22;27616;51.420;6.788;2023-04-24T00:24:29;11.20;99.90
41928;DHT22;27616;51.420;6.788;2023-04-24T00:26:55;11.20;99.90
41928;DHT22;27616;51.420;6.788;2023-04-24T00:29:20;11.20;99.90
41928;DHT22;27616;51.420;6.788;2023-04-24T00:31:46;11.10;99.90
41928;DHT22;27616;51.420;6.788;2023-04-24T00:34:13;11.10;99.90
41928;DHT22;27616;51.420;6.788;2023-04-24T00:36:39;11.10;99.90
41928;DHT22;27616;51.420;6.788;2023-04-24T00:39:04;11.10;99.90
41928;DHT22;27616;51.420;6.788;2023-04-24T00:41:30;11.00;99.90
41928;DHT22;27616;51.420;6.788;2023-04-24T00:43:56;11.00;99.90
41928;DHT22;27616;51.420;6.788;2023-04-24T00:46:22;11.00;99.90
41928;DHT22;27616;51.420;6.788;2023-04-24T00:48:48;11.00;99.90
41928;DHT22;27616;51.420;6.788;2023-04-24T00:51:13;11.00;99.90
41928;DHT22;27616;51.420;6.788;2023-04-24T00:53:39;11.00;99.90
41928;DHT22;27616;51.420;6.788;2023-04-24T00:56:05;10.90;99.90
41928;DHT22;27616;51.420;6.788;2023-04-24T00:58:31;10.80;99.90
41928;DHT22;27616;51.420;6.788;2023-04-24T01:00:58;10.80;99.90
41928;DHT22;27616;51.420;6.788;2023-04-24T01:03:29;10.70;99.90
41928;DHT22;27616;51.420;6.788;2023-04-24T01:05:55;10.70;99.90
41928;DHT22;27616;51.420;6.788;2023-04-24T01:08:26;10.60;99.90
41928;DHT22;27616;51.420;6.788;2023-04-24T01:10:54;10.60;99.90
41928;DHT22;27616;51.420;6.788;2023-04-24T01:13:20;10.50;99.90
41928;DHT22;27616;51.420;6.788;2023-04-24T01:15:47;10.40;99.90
41928;DHT22;27616;51.420;6.788;2023-04-24T01:18:13;10.40;99.90
41928;DHT22;27616;51.420;6.788;2023-04-24T01:20:40;10.30;99.90
41928;DHT22;27616;51.420;6.788;2023-04-24T01:23:07;10.30;99.90
41928;DHT22;27616;51.420;6.788;2023-04-24T01:25:34;10.30;99.90
41928;DHT22;27616;51.420;6.788;2023-04-24T01:28:00;10.20;99.90
41928;DHT22;27616;51.420;6.788;2023-04-24T01:30:30;10.20;99.90
41928;DHT22;27616;51.420;6.788;2023-04-24T01:32:58;10.10;99.90
41928;DHT22;27616;51.420;6.788;2023-04-24T01:35:24;10.10;99.90
41928;DHT22;27616;51.420;6.788;2023-04-24T01:37:51;10.10;99.90
41928;DHT22;27616;51.420;6.788;2023-04-24T01:40:16;10.10;99.90
41928;DHT22;27616;51.420;6.788;2023-04-24T01:42:42;9.90;99.90
41928;DHT22;27616;51.420;6.788;2023-04-24T01:45:10;9.90;99.90
41928;DHT22;27616;51.420;6.788;2023-04-24T01:47:36;9.90;99.90
41928;DHT22;27616;51.420;6.788;2023-04-24T01:50:04;9.90;99.90
41928;DHT22;27616;51.420;6.788;2023-04-24T01:52:31;9.90;99.90
41928;DHT22;27616;51.420;6.788;2023-04-24T01:55:05;10.00;99.90
41928;DHT22;27616;51.420;6.788;2023-04-24T01:57:31;9.90;99.90
41928;DHT22;27616;51.420;6.788;2023-04-24T01:59:58;9.90;99.90
41928;DHT22;27616;51.420;6.788;2023-04-24T02:02:24;9.90;99.90
41928;DHT22;27616;51.420;6.788;2023-04-24T02:04:53;9.90;99.90
41928;DHT22;27616;51.420;6.788;2023-04-24T02:07:20;9.90;99.90
41928;DHT22;27616;51.420;6.788;2023-04-24T02:09:45;9.90;99.90
41928;DHT22;27616;51.420;6.788;2023-04-24T02:12:11;9.80;99.90
41928;DHT22;27616;51.420;6.788;2023-04-24T02:14:37;9.80;99.90
41928;DHT22;27616;51.420;6.788;2023-04-24T02:17:03;9.80;99.90
41928;DHT22;27616;51.420;6.788;2023-04-24T02:19:29;9.80;99.90
41928;DHT22;27616;51.420;6.788;2023-04-24T02:21:54;9.80;99.90
41928;DHT22;27616;51.420;6.788;2023-04-24T02:24:20;9.80;99.90
41928;DHT22;27616;51.420;6.788;2023-04-24T02:26:46;9.80;99.90
41928;DHT22;27616;51.420;6.788;2023-04-24T02:29:12;9.70;99.90
41928;DHT22;27616;51.420;6.788;2023-04-24T02:31:37;9.70;99.90
41928;DHT22;27616;51.420;6.788;2023-04-24T02:34:03;9.70;99.90
41928;DHT22;27616;51.420;6.788;2023-04-24T02:36:29;9.60;99.90
41928;DHT22;27616;51.420;6.788;2023-04-24T02:38:55;9.70;99.90
41928;DHT22;27616;51.420;6.788;2023-04-24T02:41:21;9.60;99.90
41928;DHT22;27616;51.420;6.788;2023-04-24T02:43:47;9.70;99.90
41928;DHT22;27616;51.420;6.788;2023-04-24T02:46:13;9.70;99.90
41928;DHT22;27616;51.420;6.788;2023-04-24T02:48:39;9.70;99.90
41928;DHT22;27616;51.420;6.788;2023-04-24T02:51:05;9.60;99.90
41928;DHT22;27616;51.420;6.788;2023-04-24T02:53:32;9.70;99.90
41928;DHT22;27616;51.420;6.788;2023-04-24T02:55:58;9.70;99.90
41928;DHT22;27616;51.420;6.788;2023-04-24T02:58:24;9.70;99.90
41928;DHT22;27616;51.420;6.788;2023-04-24T03:00:54;9.70;99.90
41928;DHT22;27616;51.420;6.788;2023-04-24T03:03:21;9.60;99.90
41928;DHT22;27616;51.420;6.788;2023-04-24T03:05:47;9.60;99.90
41928;DHT22;27616;51.420;6.788;2023-04-24T03:08:13;9.60;99.90
41928;DHT22;27616;51.420;6.788;2023-04-24T03:10:40;9.60;99.90
41928;DHT22;27616;51.420;6.788;2023-04-24T03:13:07;9.60;99.90
41928;DHT22;27616;51.420;6.788;2023-04-24T03:15:33;9.60;99.90
41928;DHT22;27616;51.420;6.788;2023-04-24T03:17:59;9.60;99.90
41928;DHT22;27616;51.420;6.788;2023-04-24T03:20:26;9.60;99.90
41928;DHT22;27616;51.420;6.788;2023-04-24T03:22:53;9.60;99.90
41928;DHT22;27616;51.420;6.788;2023-04-24T03:25:19;9.60;99.90
41928;DHT22;27616;51.420;6.788;2023-04-24T03:27:45;9.60;99.90
41928;DHT22;27616;51.420;6.788;2023-04-24T03:30:23;9.60;99.90
41928;DHT22;27616;51.420;6.788;2023-04-24T03:32:54;9.60;99.90
41928;DHT22;27616;51.420;6.788;2023-04-24T03:35:25;9.60;99.90
41928;DHT22;27616;51.420;6.788;2023-04-24T03:37:52;9.70;99.90
41928;DHT22;27616;51.420;6.788;2023-04-24T03:40:49;9.70;99.90
41928;DHT22;27616;51.420;6.788;2023-04-24T03:43:29;9.70;99.90
41928;DHT22;27616;51.420;6.788;2023-04-24T03:45:57;9.70;99.90
41928;DHT22;27616;51.420;6.788;2023-04-24T03:48:23;9.60;99.90
41928;DHT22;27616;51.420;6.788;2023-04-24T03:50:49;9.60;99.90
41928;DHT22;27616;51.420;6.788;2023-04-24T03:53:15;9.60;99.90
41928;DHT22;27616;51.420;6.788;2023-04-24T03:55:41;9.70;99.90
41928;DHT22;27616;51.420;6.788;2023-04-24T03:58:08;9.70;99.90
41928;DHT22;27616;51.420;6.788;2023-04-24T04:00:34;9.70;99.90
41928;DHT22;27616;51.420;6.788;2023-04-24T04:03:22;9.70;99.90
41928;DHT22;27616;51.420;6.788;2023-04-24T04:05:49;9.70;99.90
41928;DHT22;27616;51.420;6.788;2023-04-24T04:08:15;9.70;99.90
41928;DHT22;27616;51.420;6.788;2023-04-24T04:10:41;9.70;99.90
41928;DHT22;27616;51.420;6.788;2023-04-24T04:13:06;9.70;99.90
41928;DHT22;27616;51.420;6.788;2023-04-24T04:15:33;9.70;99.90
41928;DHT22;27616;51.420;6.788;2023-04-24T04:17:59;9.70;99.90
41928;DHT22;27616;51.420;6.788;2023-04-24T04:20:25;9.80;99.90
41928;DHT22;27616;51.420;6.788;2023-04-24T04:22:51;9.70;99.90
41928;DHT22;27616;51.420;6.788;2023-04-24T04:25:24;9.70;99.90
41928;DHT22;27616;51.420;6.788;2023-04-24T04:27:50;9.70;99.90
41928;DHT22;27616;51.420;6.788;2023-04-24T04:30:17;9.60;99.90
41928;DHT22;27616;51.420;6.788;2023-04-24T04:32:54;9.60;99.90
41928;DHT22;27616;51.420;6.788;2023-04-24T04:35:21;9.70;99.90
41928;DHT22;27616;51.420;6.788;2023-04-24T04:37:47;9.70;99.90
41928;DHT22;27616;51.420;6.788;2023-04-24T04:40:33;9.70;99.90
41928;DHT22;27616;51.420;6.788;2023-04-24T04:43:03;9.70;99.90
41928;DHT22;27616;51.420;6.788;2023-04-24T04:45:37;9.70;99.90
41928;DHT22;27616;51.420;6.788;2023-04-24T04:48:27;9.60;99.90
41928;DHT22;27616;51.420;6.788;2023-04-24T04:50:56;9.70;99.90
41928;DHT22;27616;51.420;6.788;2023-04-24T04:53:22;9.70;99.90
41928;DHT22;27616;51.420;6.788;2023-04-24T04:55:48;9.70;99.90
41928;DHT22;27616;51.420;6.788;2023-04-24T04:58:15;9.60;99.90
41928;DHT22;27616;51.420;6.788;2023-04-24T05:00:43;9.60;99.90
41928;DHT22;27616;51.420;6.788;2023-04-24T05:03:22;9.60;99.90
41928;DHT22;27616;51.420;6.788;2023-04-24T05:05:55;9.70;99.90
41928;DHT22;27616;51.420;6.788;2023-04-24T05:08:21;9.60;99.90
41928;DHT22;27616;51.420;6.788;2023-04-24T05:10:47;9.60;99.90
41928;DHT22;27616;51.420;6.788;2023-04-24T05:13:13;9.60;99.90
41928;DHT22;27616;51.420;6.788;2023-04-24T05:15:39;9.50;99.90
41928;DHT22;27616;51.420;6.788;2023-04-24T05:18:05;9.50;99.90
41928;DHT22;27616;51.420;6.788;2023-04-24T05:20:32;9.40;99.90
41928;DHT22;27616;51.420;6.788;2023-04-24T05:22:58;9.30;99.90
41928;DHT22;27616;51.420;6.788;2023-04-24T05:25:25;9.20;99.90
41928;DHT22;27616;51.420;6.788;2023-04-24T05:27:55;9.10;99.90
41928;DHT22;27616;51.420;6.788;2023-04-24T05:30:22;9.00;99.90
41928;DHT22;27616;51.420;6.788;2023-04-24T05:32:49;8.90;99.90
41928;DHT22;27616;51.420;6.788;2023-04-24T05:35:15;8.90;99.90
41928;DHT22;27616;51.420;6.788;2023-04-24T05:37:40;8.80;99.90
41928;DHT22;27616;51.420;6.788;2023-04-24T05:40:08;8.80;99.90
41928;DHT22;27616;51.420;6.788;2023-04-24T05:42:34;8.80;99.90
41928;DHT22;27616;51.420;6.788;2023-04-24T05:45:00;8.80;99.90
41928;DHT22;27616;51.420;6.788;2023-04-24T05:47:26;8.80;99.90
41928;DHT22;27616;51.420;6.788;2023-04-24T05:49:52;8.80;99.90
41928;DHT22;27616;51.420;6.788;2023-04-24T05:52:19;8.80;99.90
41928;DHT22;27616;51.420;6.788;2023-04-24T05:54:46;8.80;99.90
41928;DHT22;27616;51.420;6.788;2023-04-24T05:57:17;8.90;99.90
41928;DHT22;27616;51.420;6.788;2023-04-24T05:59:50;8.90;99.90
41928;DHT22;27616;51.420;6.788;2023-04-24T06:02:17;9.00;99.90
41928;DHT22;27616;51.420;6.788;2023-04-24T06:04:43;9.00;99.90
41928;DHT22;27616;51.420;6.788;2023-04-24T06:07:11;8.90;99.90
41928;DHT22;27616;51.420;6.788;2023-04-24T06:09:37;9.00;99.90
41928;DHT22;27616;51.420;6.788;2023-04-24T06:12:03;8.90;99.90
41928;DHT22;27616;51.420;6.788;2023-04-24T06:14:42;8.80;99.90
41928;DHT22;27616;51.420;6.788;2023-04-24T06:17:31;8.80;99.90
41928;DHT22;27616;51.420;6.788;2023-04-24T06:19:58;8.80;99.90
41928;DHT22;27616;51.420;6.788;2023-04-24T06:22:24;8.80;99.90
41928;DHT22;27616;51.420;6.788;2023-04-24T06:24:50;8.80;99.90
41928;DHT22;27616;51.420;6.788;2023-04-24T06:27:17;8.80;99.90
41928;DHT22;27616;51.420;6.788;2023-04-24T06:29:42;8.80;99.90
41928;DHT22;27616;51.420;6.788;2023-04-24T06:32:08;8.80;99.90
41928;DHT22;27616;51.420;6.788;2023-04-24T06:34:34;8.80;99.90
41928;DHT22;27616;51.420;6.788;2023-04-24T06:37:01;8.80;99.90
41928;DHT22;27616;51.420;6.788;2023-04-24T06:39:27;8.80;99.90
41928;DHT22;27616;51.420;6.788;2023-04-24T06:41:53;8.80;99.90
41928;DHT22;27616;51.420;6.788;2023-04-24T06:44:19;8.80;99.90
41928;DHT22;27616;51.420;6.788;2023-04-24T06:46:45;8.70;99.90
41928;DHT22;27616;51.420;6.788;2023-04-24T06:49:11;8.60;99.90
41928;DHT22;27616;51.420;6.788;2023-04-24T06:51:37;8.60;99.90
41928;DHT22;27616;51.420;6.788;2023-04-24T06:54:02;8.60;99.90
41928;DHT22;27616;51.420;6.788;2023-04-24T06:56:28;8.70;99.90
41928;DHT22;27616;51.420;6.788;2023-04-24T06:58:57;8.70;99.90
41928;DHT22;27616;51.420;6.788;2023-04-24T07:01:22;8.70;99.90
41928;DHT22;27616;51.420;6.788;2023-04-24T07:03:48;8.90;99.90
41928;DHT22;27616;51.420;6.788;2023-04-24T07:06:14;8.90;99.90
41928;DHT22;27616;51.420;6.788;2023-04-24T07:08:41;8.90;99.90
41928;DHT22;27616;51.420;6.788;2023-04-24T07:11:07;8.90;99.90
41928;DHT22;27616;51.420;6.788;2023-04-24T07:13:33;8.90;99.90
41928;DHT22;27616;51.420;6.788;2023-04-24T07:16:00;8.80;99.90
41928;DHT22;27616;51.420;6.788;2023-04-24T07:18:26;8.80;99.90
41928;DHT22;27616;51.420;6.788;2023-04-24T07:20:52;8.80;99.90
41928;DHT22;27616;51.420;6.788;2023-04-24T07:23:19;8.70;99.90
41928;DHT22;27616;51.420;6.788;2023-04-24T07:25:44;8.80;99.90
41928;DHT22;27616;51.420;6.788;2023-04-24T07:28:10;8.80;99.90
41928;DHT22;27616;51.420;6.788;2023-04-24T07:30:36;8.80;99.90
41928;DHT22;27616;51.420;6.788;2023-04-24T07:33:02;8.70;99.90
41928;DHT22;27616;51.420;6.788;2023-04-24T07:35:27;8.70;99.90
41928;DHT22;27616;51.420;6.788;2023-04-24T07:37:53;8.70;99.90
41928;DHT22;27616;51.420;6.788;2023-04-24T07:40:20;8.70;99.90
41928;DHT22;27616;51.420;6.788;2023-04-24T07:42:46;8.60;99.90
41928;DHT22;27616;51.420;6.788;2023-04-24T07:45:14;8.50;99.90
41928;DHT22;27616;51.420;6.788;2023-04-24T07:47:43;8.50;99.90
41928;DHT22;27616;51.420;6.788;2023-04-24T07:50:11;8.40;99.90
41928;DHT22;27616;51.420;6.788;2023-04-24T07:52:38;8.40;99.90
41928;DHT22;27616;51.420;6.788;2023-04-24T07:55:04;8.40;99.90
41928;DHT22;27616;51.420;6.788;2023-04-24T07:57:30;8.30;99.90
41928;DHT22;27616;51.420;6.788;2023-04-24T07:59:56;8.30;99.90
41928;DHT22;27616;51.420;6.788;2023-04-24T08:02:21;8.20;99.90
41928;DHT22;27616;51.420;6.788;2023-04-24T08:04:52;8.20;99.90
41928;DHT22;27616;51.420;6.788;2023-04-24T08:07:19;8.20;99.90
41928;DHT22;27616;51.420;6.788;2023-04-24T08:09:45;8.20;99.90
41928;DHT22;27616;51.420;6.788;2023-04-24T08:12:11;8.20;99.90
41928;DHT22;27616;51.420;6.788;2023-04-24T08:14:36;8.20;99.90
41928;DHT22;27616;51.420;6.788;2023-04-24T08:17:02;8.20;99.90
41928;DHT22;27616;51.420;6.788;2023-04-24T08:19:29;8.20;99.90
41928;DHT22;27616;51.420;6.788;2023-04-24T08:21:54;8.20;99.90
41928;DHT22;27616;51.420;6.788;2023-04-24T08:24:20;8.10;99.90
41928;DHT22;27616;51.420;6.788;2023-04-24T08:26:46;8.20;99.90
41928;DHT22;27616;51.420;6.788;2023-04-24T08:29:15;8.20;99.90
41928;DHT22;27616;51.420;6.788;2023-04-24T08:31:41;8.20;99.90
41928;DHT22;27616;51.420;6.788;2023-04-24T08:34:07;8.30;99.90
41928;DHT22;27616;51.420;6.788;2023-04-24T08:36:33;8.20;99.90
41928;DHT22;27616;51.420;6.788;2023-04-24T08:38:59;8.30;99.90
41928;DHT22;27616;51.420;6.788;2023-04-24T08:41:25;8.40;99.90
41928;DHT22;27616;51.420;6.788;2023-04-24T08:43:52;8.40;99.90
41928;DHT22;27616;51.420;6.788;2023-04-24T08:46:19;8.50;99.90
41928;DHT22;27616;51.420;6.788;2023-04-24T08:48:45;8.60;99.90
41928;DHT22;27616;51.420;6.788;2023-04-24T08:51:12;8.60;99.90
41928;DHT22;27616;51.420;6.788;2023-04-24T08:53:38;8.70;99.90
41928;DHT22;27616;51.420;6.788;2023-04-24T08:56:04;8.70;99.90
41928;DHT22;27616;51.420;6.788;2023-04-24T08:58:31;8.80;99.90
41928;DHT22;27616;51.420;6.788;2023-04-24T09:00:57;8.80;99.90
41928;DHT22;27616;51.420;6.788;2023-04-24T09:03:24;8.70;99.90
41928;DHT22;27616;51.420;6.788;2023-04-24T09:05:52;8.70;99.90
41928;DHT22;27616;51.420;6.788;2023-04-24T09:08:20;9.00;99.90
41928;DHT22;27616;51.420;6.788;2023-04-24T09:10:47;8.90;99.90
41928;DHT22;27616;51.420;6.788;2023-04-24T09:13:14;8.80;99.90
41928;DHT22;27616;51.420;6.788;2023-04-24T09:15:40;8.70;99.90
41928;DHT22;27616;51.420;6.788;2023-04-24T09:18:06;8.60;99.90
41928;DHT22;27616;51.420;6.788;2023-04-24T09:20:32;8.60;99.90
41928;DHT22;27616;51.420;6.788;2023-04-24T09:22:58;8.60;99.90
41928;DHT22;27616;51.420;6.788;2023-04-24T09:25:34;8.60;99.90
41928;DHT22;27616;51.420;6.788;2023-04-24T09:28:04;8.60;99.90
41928;DHT22;27616;51.420;6.788;2023-04-24T09:30:32;8.60;99.90
41928;DHT22;27616;51.420;6.788;2023-04-24T09:33:14;8.60;99.90
41928;DHT22;27616;51.420;6.788;2023-04-24T09:35:52;8.50;99.90
41928;DHT22;27616;51.420;6.788;2023-04-24T09:38:18;8.40;99.90
41928;DHT22;27616;51.420;6.788;2023-04-24T09:40:43;8.40;99.90
41928;DHT22;27616;51.420;6.788;2023-04-24T09:43:12;8.40;99.90
41928;DHT22;27616;51.420;6.788;2023-04-24T09:45:39;8.30;99.90
41928;DHT22;27616;51.420;6.788;2023-04-24T09:48:08;8.30;99.90
41928;DHT22;27616;51.420;6.788;2023-04-24T09:50:34;8.30;99.90
41928;DHT22;27616;51.420;6.788;2023-04-24T09:53:05;8.40;99.90
41928;DHT22;27616;51.420;6.788;2023-04-24T09:55:31;8.40;99.90
41928;DHT22;27616;51.420;6.788;2023-04-24T09:57:59;8.40;99.90
41928;DHT22;27616;51.420;6.788;2023-04-24T10:00:33;8.40;99.90
41928;DHT22;27616;51.420;6.788;2023-04-24T10:03:00;8.40;99.90
41928;DHT22;27616;51.420;6.788;2023-04-24T10:05:29;8.40;99.90
41928;DHT22;27616;51.420;6.788;2023-04-24T10:08:05;8.40;99.90
41928;DHT22;27616;51.420;6.788;2023-04-24T10:10:33;8.50;99.90
41928;DHT22;27616;51.420;6.788;2023-04-24T10:13:00;8.50;99.90
41928;DHT22;27616;51.420;6.788;2023-04-24T10:15:27;8.50;99.90
41928;DHT22;27616;51.420;6.788;2023-04-24T10:17:53;8.60;99.90
41928;DHT22;27616;51.420;6.788;2023-04-24T10:20:23;8.70;99.90
41928;DHT22;27616;51.420;6.788;2023-04-24T10:22:50;8.70;99.90
41928;DHT22;27616;51.420;6.788;2023-04-24T10:25:27;8.70;99.90
41928;DHT22;27616;51.420;6.788;2023-04-24T10:27:54;8.80;99.90
41928;DHT22;27616;51.420;6.788;2023-04-24T10:30:29;8.80;99.90
41928;DHT22;27616;51.420;6.788;2023-04-24T10:32:55;8.90;99.90
41928;DHT22;27616;51.420;6.788;2023-04-24T10:35:22;9.00;99.90
41928;DHT22;27616;51.420;6.788;2023-04-24T10:38:12;8.90;99.90
41928;DHT22;27616;51.420;6.788;2023-04-24T10:40:38;8.90;99.90
41928;DHT22;27616;51.420;6.788;2023-04-24T10:43:05;9.00;99.90
41928;DHT22;27616;51.420;6.788;2023-04-24T10:45:34;9.00;99.90
41928;DHT22;27616;51.420;6.788;2023-04-24T10:48:08;9.00;99.90
41928;DHT22;27616;51.420;6.788;2023-04-24T10:53:17;9.00;99.90
41928;DHT22;27616;51.420;6.788;2023-04-24T10:55:48;9.00;99.90
41928;DHT22;27616;51.420;6.788;2023-04-24T10:58:14;9.10;99.90
41928;DHT22;27616;51.420;6.788;2023-04-24T11:00:43;9.20;99.90
41928;DHT22;27616;51.420;6.788;2023-04-24T11:03:50;9.30;99.90
41928;DHT22;27616;51.420;6.788;2023-04-24T11:06:16;9.60;99.90
41928;DHT22;27616;51.420;6.788;2023-04-24T11:09:02;9.90;99.90
41928;DHT22;27616;51.420;6.788;2023-04-24T11:11:29;10.10;99.90
41928;DHT22;27616;51.420;6.788;2023-04-24T11:19:17;10.30;99.90
41928;DHT22;27616;51.420;6.788;2023-04-24T11:21:46;10.10;99.90
41928;DHT22;27616;51.420;6.788;2023-04-24T11:27:38;9.80;99.90
41928;DHT22;27616;51.420;6.788;2023-04-24T11:29:48;9.60;99.90
41928;DHT22;27616;51.420;6.788;2023-04-24T11:32:23;9.40;99.90
41928;DHT22;27616;51.420;6.788;2023-04-24T11:34:51;9.40;99.90
41928;DHT22;27616;51.420;6.788;2023-04-24T11:37:17;9.40;99.90
41928;DHT22;27616;51.420;6.788;2023-04-24T11:39:43;9.50;99.90
41928;DHT22;27616;51.420;6.788;2023-04-24T11:42:15;9.70;99.90
41928;DHT22;27616;51.420;6.788;2023-04-24T11:44:42;9.70;99.90
41928;DHT22;27616;51.420;6.788;2023-04-24T11:47:08;10.00;99.90
41928;DHT22;27616;51.420;6.788;2023-04-24T11:49:36;10.10;99.90
41928;DHT22;27616;51.420;6.788;2023-04-24T11:52:02;10.10;99.90
41928;DHT22;27616;51.420;6.788;2023-04-24T11:54:28;10.30;99.90
41928;DHT22;27616;51.420;6.788;2023-04-24T11:56:56;10.40;99.90
41928;DHT22;27616;51.420;6.788;2023-04-24T11:59:22;10.60;99.90
41928;DHT22;27616;51.420;6.788;2023-04-24T12:01:49;10.60;99.90
41928;DHT22;27616;51.420;6.788;2023-04-24T12:04:16;10.60;99.90
41928;DHT22;27616;51.420;6.788;2023-04-24T12:07:02;10.60;99.90
41928;DHT22;27616;51.420;6.788;2023-04-24T12:09:28;10.50;99.90
41928;DHT22;27616;51.420;6.788;2023-04-24T12:11:54;10.40;99.90
41928;DHT22;27616;51.420;6.788;2023-04-24T12:14:23;10.30;99.90
41928;DHT22;27616;51.420;6.788;2023-04-24T12:16:52;10.30;99.90
41928;DHT22;27616;51.420;6.788;2023-04-24T12:19:22;10.30;99.90
41928;DHT22;27616;51.420;6.788;2023-04-24T12:22:05;10.10;99.90
41928;DHT22;27616;51.420;6.788;2023-04-24T12:24:31;10.00;99.90
41928;DHT22;27616;51.420;6.788;2023-04-24T12:27:00;10.00;99.90
41928;DHT22;27616;51.420;6.788;2023-04-24T12:29:26;10.10;99.90
41928;DHT22;27616;51.420;6.788;2023-04-24T12:31:52;10.10;99.90
41928;DHT22;27616;51.420;6.788;2023-04-24T12:34:19;10.20;99.90
41928;DHT22;27616;51.420;6.788;2023-04-24T12:36:46;10.30;99.90
41928;DHT22;27616;51.420;6.788;2023-04-24T12:39:16;10.30;99.90
41928;DHT22;27616;51.420;6.788;2023-04-24T12:41:54;10.30;99.90
41928;DHT22;27616;51.420;6.788;2023-04-24T12:44:19;10.20;99.90
41928;DHT22;27616;51.420;6.788;2023-04-24T12:46:45;10.30;99.90
41928;DHT22;27616;51.420;6.788;2023-04-24T12:49:11;10.40;99.90
41928;DHT22;27616;51.420;6.788;2023-04-24T12:51:36;10.70;99.90
41928;DHT22;27616;51.420;6.788;2023-04-24T12:54:02;10.80;99.90
41928;DHT22;27616;51.420;6.788;2023-04-24T12:56:28;10.90;99.90
41928;DHT22;27616;51.420;6.788;2023-04-24T12:58:53;10.90;99.90
41928;DHT22;27616;51.420;6.788;2023-04-24T13:01:19;10.80;99.90
41928;DHT22;27616;51.420;6.788;2023-04-24T13:03:45;10.70;99.90
41928;DHT22;27616;51.420;6.788;2023-04-24T13:06:10;10.70;99.90
41928;DHT22;27616;51.420;6.788;2023-04-24T13:08:36;10.60;99.90
41928;DHT22;27616;51.420;6.788;2023-04-24T13:11:02;10.60;99.90
41928;DHT22;27616;51.420;6.788;2023-04-24T13:13:28;10.50;99.90
41928;DHT22;27616;51.420;6.788;2023-04-24T13:15:53;10.50;99.90
41928;DHT22;27616;51.420;6.788;2023-04-24T13:18:19;10.30;99.90
41928;DHT22;27616;51.420;6.788;2023-04-24T13:20:45;10.30;99.90
41928;DHT22;27616;51.420;6.788;2023-04-24T13:23:12;10.20;99.90
41928;DHT22;27616;51.420;6.788;2023-04-24T13:25:38;10.20;99.90
41928;DHT22;27616;51.420;6.788;2023-04-24T13:28:04;10.30;99.90
41928;DHT22;27616;51.420;6.788;2023-04-24T13:30:31;10.40;99.90
41928;DHT22;27616;51.420;6.788;2023-04-24T13:32:57;10.40;99.90
41928;DHT22;27616;51.420;6.788;2023-04-24T13:35:23;10.50;99.90
41928;DHT22;27616;51.420;6.788;2023-04-24T13:40:47;10.60;99.90
41928;DHT22;27616;51.420;6.788;2023-04-24T13:43:13;10.70;99.90
41928;DHT22;27616;51.420;6.788;2023-04-24T13:45:39;10.60;99.90
41928;DHT22;27616;51.420;6.788;2023-04-24T13:48:05;10.60;99.90
41928;DHT22;27616;51.420;6.788;2023-04-24T13:50:31;10.60;99.90
41928;DHT22;27616;51.420;6.788;2023-04-24T13:52:56;10.60;99.90
41928;DHT22;27616;51.420;6.788;2023-04-24T13:55:22;10.70;99.90
41928;DHT22;27616;51.420;6.788;2023-04-24T13:57:48;10.70;99.90
41928;DHT22;27616;51.420;6.788;2023-04-24T14:00:15;10.70;99.90
41928;DHT22;27616;51.420;6.788;2023-04-24T14:02:40;10.90;99.90
41928;DHT22;27616;51.420;6.788;2023-04-24T14:05:06;11.10;99.90
41928;DHT22;27616;51.420;6.788;2023-04-24T14:07:32;11.20;99.90
41928;DHT22;27616;51.420;6.788;2023-04-24T14:09:58;11.30;99.90
41928;DHT22;27616;51.420;6.788;2023-04-24T14:12:23;11.30;99.90
41928;DHT22;27616;51.420;6.788;2023-04-24T14:14:49;11.50;99.90
41928;DHT22;27616;51.420;6.788;2023-04-24T14:17:15;11.50;99.90
41928;DHT22;27616;51.420;6.788;2023-04-24T14:19:41;11.50;99.90
41928;DHT22;27616;51.420;6.788;2023-04-24T14:22:07;11.40;99.90
41928;DHT22;27616;51.420;6.788;2023-04-24T14:24:32;11.20;99.90
41928;DHT22;27616;51.420;6.788;2023-04-24T14:26:58;11.30;99.90
41928;DHT22;27616;51.420;6.788;2023-04-24T14:29:24;11.30;99.90
41928;DHT22;27616;51.420;6.788;2023-04-24T14:31:51;11.20;99.90
41928;DHT22;27616;51.420;6.788;2023-04-24T14:34:17;11.10;99.90
41928;DHT22;27616;51.420;6.788;2023-04-24T14:36:42;11.10;99.90
41928;DHT22;27616;51.420;6.788;2023-04-24T14:39:09;10.90;99.90
41928;DHT22;27616;51.420;6.788;2023-04-24T14:41:36;10.90;99.90
41928;DHT22;27616;51.420;6.788;2023-04-24T14:44:03;10.80;99.90
41928;DHT22;27616;51.420;6.788;2023-04-24T14:46:29;10.70;99.90
41928;DHT22;27616;51.420;6.788;2023-04-24T14:48:56;10.50;99.90
41928;DHT22;27616;51.420;6.788;2023-04-24T14:51:22;10.40;99.90
41928;DHT22;27616;51.420;6.788;2023-04-24T14:53:48;10.40;99.90
41928;DHT22;27616;51.420;6.788;2023-04-24T14:56:14;10.40;99.90
41928;DHT22;27616;51.420;6.788;2023-04-24T14:58:40;10.40;99.90
41928;DHT22;27616;51.420;6.788;2023-04-24T15:01:06;10.30;99.90
41928;DHT22;27616;51.420;6.788;2023-04-24T15:03:31;10.40;99.90
41928;DHT22;27616;51.420;6.788;2023-04-24T15:05:57;10.40;99.90
41928;DHT22;27616;51.420;6.788;2023-04-24T15:08:23;10.50;99.90
41928;DHT22;27616;51.420;6.788;2023-04-24T15:10:49;10.50;99.90
41928;DHT22;27616;51.420;6.788;2023-04-24T15:13:15;10.50;99.90
41928;DHT22;27616;51.420;6.788;2023-04-24T15:15:41;10.60;99.90
41928;DHT22;27616;51.420;6.788;2023-04-24T15:18:08;10.90;99.90
41928;DHT22;27616;51.420;6.788;2023-04-24T15:20:36;11.20;99.90
41928;DHT22;27616;51.420;6.788;2023-04-24T15:23:01;11.00;99.90
41928;DHT22;27616;51.420;6.788;2023-04-24T15:25:27;11.10;99.90
41928;DHT22;27616;51.420;6.788;2023-04-24T15:27:53;11.20;99.90
41928;DHT22;27616;51.420;6.788;2023-04-24T15:30:19;11.40;99.90
41928;DHT22;27616;51.420;6.788;2023-04-24T15:32:45;11.60;99.90
41928;DHT22;27616;51.420;6.788;2023-04-24T15:35:11;11.50;99.90
41928;DHT22;27616;51.420;6.788;2023-04-24T15:37:38;11.30;99.90
41928;DHT22;27616;51.420;6.788;2023-04-24T15:40:04;11.20;99.90
41928;DHT22;27616;51.420;6.788;2023-04-24T15:42:32;11.30;99.90
41928;DHT22;27616;51.420;6.788;2023-04-24T15:44:58;11.20;99.90
41928;DHT22;27616;51.420;6.788;2023-04-24T15:47:24;11.20;99.90
41928;DHT22;27616;51.420;6.788;2023-04-24T15:49:51;11.30;99.90
41928;DHT22;27616;51.420;6.788;2023-04-24T15:52:18;11.20;99.90
41928;DHT22;27616;51.420;6.788;2023-04-24T15:54:44;11.20;99.90